Time;durP1;ratioP1;P1;durP2;ratioP2;P2;SDS_P1;SDS_P2;PMS_P1;PMS_P2;Temp;Humidity;BMP_temperature;BMP_pressure;BME280_temperature;BME280_humidity;BME280_pressure;Samples;Min_cycle;Max_cycle;Signal;HPM_P1;HPM_P2
2021/07/21 00:00:48;;;;;;;11.00;6.78;;;;;;;15.74;75.93;101282.03;5023692;28;20847;-83
2021/07/21 00:03:17;;;;;;;13.15;7.50;;;;;;;15.69;76.05;101279.69;5023166;28;20151;-83
2021/07/21 00:05:44;;;;;;;13.05;7.07;;;;;;;15.67;75.78;101282.47;4999097;28;20078;-82
2021/07/21 00:08:12;;;;;;;10.20;6.70;;;;;;;15.65;75.75;101284.38;5009843;28;20417;-82
2021/07/21 00:10:40;;;;;;;10.68;6.80;;;;;;;15.71;75.68;101285.72;5022706;28;20053;-83
2021/07/21 00:16:04;;;;;;;13.13;6.75;;;;;;;15.61;76.11;101282.84;5017298;28;20045;-83
2021/07/21 00:18:36;;;;;;;7.85;5.60;;;;;;;15.50;76.60;101279.25;4998438;28;20046;-83
2021/07/21 00:21:04;;;;;;;12.70;6.45;;;;;;;15.54;76.59;101286.06;5022104;28;20073;-83
2021/07/21 00:23:31;;;;;;;12.18;6.50;;;;;;;15.48;76.92;101278.50;5022922;28;20137;-83
2021/07/21 00:25:59;;;;;;;11.82;6.68;;;;;;;15.44;77.14;101281.38;5012825;28;20048;-82
2021/07/21 00:28:26;;;;;;;9.50;6.38;;;;;;;15.47;77.17;101288.25;5029060;28;20045;-81
2021/07/21 00:30:54;;;;;;;11.48;6.63;;;;;;;15.48;77.48;101283.81;5003046;28;20077;-86
2021/07/21 00:33:21;;;;;;;12.57;7.93;;;;;;;15.64;77.23;101280.03;5002515;28;20138;-83
2021/07/21 00:35:48;;;;;;;15.52;7.07;;;;;;;15.67;77.09;101284.28;5016122;28;20377;-83
2021/07/21 00:38:16;;;;;;;9.77;6.60;;;;;;;15.54;77.65;101278.94;5009480;28;20128;-85
2021/07/21 00:40:43;;;;;;;15.18;7.55;;;;;;;15.51;78.01;101281.78;4994878;28;20057;-84
2021/07/21 00:43:10;;;;;;;13.70;7.55;;;;;;;15.42;78.63;101279.78;5004246;28;20075;-83
2021/07/21 00:45:37;;;;;;;15.48;7.05;;;;;;;15.36;79.14;101282.88;5017357;28;20129;-85
2021/07/21 00:48:05;;;;;;;15.40;7.10;;;;;;;15.42;79.73;101277.13;5031152;28;20426;-82
2021/07/21 00:50:32;;;;;;;11.77;7.13;;;;;;;15.37;79.45;101273.94;5021723;28;20129;-83
2021/07/21 00:52:59;;;;;;;12.27;7.40;;;;;;;15.37;79.94;101279.25;5015876;28;20191;-82
2021/07/21 00:55:27;;;;;;;15.10;8.43;;;;;;;15.33;80.56;101278.59;5007130;28;20125;-84
2021/07/21 00:57:56;;;;;;;13.65;8.05;;;;;;;15.19;81.11;101276.88;5013363;28;20041;-83
2021/07/21 01:00:23;;;;;;;10.85;7.18;;;;;;;15.41;80.77;101281.59;5003814;28;20053;-83
2021/07/21 01:02:51;;;;;;;16.25;8.65;;;;;;;15.36;81.16;101277.56;5017095;28;20053;-82
2021/07/21 01:05:25;;;;;;;13.25;8.40;;;;;;;15.22;81.44;101283.81;5025000;28;20053;-82
2021/07/21 01:07:55;;;;;;;14.60;9.27;;;;;;;15.07;82.31;101282.16;5010907;28;20144;-82
2021/07/21 01:10:26;;;;;;;12.77;8.05;;;;;;;15.04;82.57;101280.59;4998935;28;20080;-83
2021/07/21 01:13:02;;;;;;;9.98;7.50;;;;;;;15.17;82.36;101280.59;4999648;28;20087;-83
2021/07/21 01:15:43;;;;;;;14.15;8.48;;;;;;;15.14;82.64;101284.31;5015359;28;20057;-85
2021/07/21 01:18:17;;;;;;;13.30;8.70;;;;;;;15.05;83.02;101276.97;5008428;28;20137;-83
2021/07/21 01:21:06;;;;;;;14.73;9.02;;;;;;;15.08;83.45;101284.72;5028154;28;20057;-82
2021/07/21 01:23:48;;;;;;;13.18;8.77;;;;;;;15.10;83.55;101285.47;5023142;28;20160;-85
2021/07/21 01:26:27;;;;;;;11.23;9.20;;;;;;;15.13;83.27;101281.75;5025922;28;20136;-83
2021/07/21 01:28:56;;;;;;;15.52;8.65;;;;;;;15.08;83.83;101281.22;5027229;28;20340;-82
2021/07/21 01:31:38;;;;;;;14.38;8.60;;;;;;;15.06;83.99;101286.63;5018053;28;20050;-84
2021/07/21 01:34:08;;;;;;;14.98;10.00;;;;;;;14.99;84.93;101277.38;5008516;28;20053;-80
2021/07/21 01:36:41;;;;;;;17.05;9.52;;;;;;;15.06;85.00;101275.16;5034415;28;20354;-84
2021/07/21 01:39:12;;;;;;;18.85;8.45;;;;;;;15.05;84.82;101279.63;4980923;28;20129;-82
2021/07/21 01:41:44;;;;;;;16.92;9.30;;;;;;;15.02;85.08;101279.81;5018868;28;21616;-83
2021/07/21 01:44:16;;;;;;;13.57;9.60;;;;;;;14.84;86.57;101283.72;5020916;28;20067;-81
2021/07/21 01:46:44;;;;;;;13.98;8.65;;;;;;;14.78;86.72;101281.47;5041046;28;20323;-84
2021/07/21 01:49:12;;;;;;;15.45;9.27;;;;;;;14.63;87.75;101283.31;5042053;28;20060;-82
2021/07/21 01:51:41;;;;;;;17.60;9.07;;;;;;;14.71;87.69;101285.47;5004454;28;20077;-82
2021/07/21 01:54:10;;;;;;;15.27;10.38;;;;;;;14.80;87.11;101284.84;5018481;28;20128;-82
2021/07/21 01:56:37;;;;;;;13.55;9.25;;;;;;;14.96;86.84;101277.59;4993348;28;20124;-85
2021/07/21 01:59:06;;;;;;;16.13;9.18;;;;;;;15.00;86.49;101287.06;5008987;28;20051;-80
2021/07/21 02:01:33;;;;;;;11.65;9.18;;;;;;;14.95;86.67;101289.16;5009921;28;20497;-83
2021/07/21 02:04:02;;;;;;;14.77;10.00;;;;;;;14.81;87.57;101292.69;5014903;28;20132;-83
2021/07/21 02:06:33;;;;;;;17.70;9.48;;;;;;;14.72;88.44;101292.47;4995103;28;20041;-86
2021/07/21 02:09:02;;;;;;;13.13;10.15;;;;;;;14.75;88.40;101300.22;5026595;28;20072;-83
2021/07/21 02:11:29;;;;;;;15.35;10.23;;;;;;;14.64;88.90;101295.63;5014033;28;20125;-84
2021/07/21 02:13:58;;;;;;;17.33;9.73;;;;;;;14.73;88.86;101294.19;4991146;28;20040;-83
2021/07/21 02:16:26;;;;;;;18.13;11.10;;;;;;;14.71;89.11;101296.91;5015596;28;20088;-84
2021/07/21 02:18:55;;;;;;;15.73;9.85;;;;;;;14.78;89.08;101294.72;5028309;28;20045;-82
2021/07/21 02:21:23;;;;;;;22.70;10.20;;;;;;;14.82;89.01;101299.72;5020593;28;20451;-83
2021/07/21 02:23:51;;;;;;;13.77;10.40;;;;;;;14.97;88.34;101297.84;5034954;28;20112;-82
2021/07/21 02:26:20;;;;;;;13.50;10.32;;;;;;;14.88;88.34;101303.75;5005423;28;20144;-84
2021/07/21 02:28:47;;;;;;;16.08;10.00;;;;;;;14.93;87.90;101296.34;5035322;28;20136;-83
2021/07/21 02:31:28;;;;;;;13.77;9.68;;;;;;;15.00;87.51;101291.50;5014490;28;20204;-83
2021/07/21 02:33:57;;;;;;;14.38;9.48;;;;;;;15.03;87.56;101300.06;5025349;28;20037;-83
2021/07/21 02:36:25;;;;;;;12.43;9.77;;;;;;;15.13;86.98;101297.66;5028419;28;20337;-84
2021/07/21 02:38:52;;;;;;;12.32;9.25;;;;;;;15.18;86.43;101301.72;5000250;28;20141;-82
2021/07/21 02:41:19;;;;;;;17.58;11.05;;;;;;;15.19;86.54;101300.75;5035844;28;20156;-84
2021/07/21 02:43:47;;;;;;;15.52;9.82;;;;;;;15.18;86.62;101299.06;5026692;28;20081;-81
2021/07/21 02:46:14;;;;;;;14.18;9.18;;;;;;;15.31;85.79;101299.09;5024892;28;20223;-83
2021/07/21 02:48:48;;;;;;;19.25;9.73;;;;;;;15.31;85.92;101301.75;5010623;28;20049;-84
2021/07/21 02:51:22;;;;;;;16.40;9.77;;;;;;;15.39;85.38;101306.50;5008692;28;20331;-81
2021/07/21 02:53:57;;;;;;;16.60;9.77;;;;;;;15.42;85.34;101301.84;4997753;28;20120;-83
2021/07/21 02:56:25;;;;;;;13.10;9.00;;;;;;;15.44;85.35;101309.69;5002544;28;20400;-84
2021/07/21 02:59:04;;;;;;;15.70;10.15;;;;;;;15.57;84.72;101313.19;5006959;28;20045;-82
2021/07/21 03:01:33;;;;;;;15.70;9.82;;;;;;;15.60;84.37;101313.00;5006186;28;20056;-84
2021/07/21 03:04:01;;;;;;;14.52;9.20;;;;;;;15.42;84.90;101315.13;5020255;28;20045;-82
2021/07/21 03:06:30;;;;;;;18.50;9.55;;;;;;;15.53;85.11;101317.03;5015977;28;20145;-83
2021/07/21 03:08:58;;;;;;;12.93;10.15;;;;;;;15.63;84.45;101314.59;4990162;28;20140;-82
2021/07/21 03:11:25;;;;;;;17.67;9.80;;;;;;;15.53;84.92;101317.03;4999313;28;20136;-84
2021/07/21 03:13:54;;;;;;;12.68;10.05;;;;;;;15.44;85.52;101317.66;4997462;28;20124;-84
2021/07/21 03:16:29;;;;;;;13.07;9.75;;;;;;;15.53;85.33;101319.66;5039467;28;20138;-84
2021/07/21 03:19:02;;;;;;;13.30;9.67;;;;;;;15.56;85.16;101316.81;5027781;28;20061;-82
2021/07/21 03:21:31;;;;;;;12.23;9.02;;;;;;;15.53;85.44;101319.66;5012244;28;20046;-85
2021/07/21 03:24:00;;;;;;;15.38;9.18;;;;;;;15.67;85.09;101326.75;5019719;28;20096;-81
2021/07/21 03:26:29;;;;;;;15.75;10.95;;;;;;;15.79;84.13;101328.53;5017571;28;20114;-82
2021/07/21 03:28:57;;;;;;;13.15;10.07;;;;;;;15.83;84.26;101329.16;5016581;28;20049;-83
2021/07/21 03:31:25;;;;;;;13.80;9.50;;;;;;;15.73;84.85;101328.13;5006487;28;20153;-83
2021/07/21 03:34:03;;;;;;;16.05;9.60;;;;;;;15.69;85.12;101332.78;5018579;28;20069;-83
2021/07/21 03:40:43;;;;;;;15.05;9.35;;;;;;;16.02;83.34;101334.03;5056453;28;20048;-80
2021/07/21 03:43:10;;;;;;;12.55;9.10;;;;;;;15.95;83.44;101336.28;5050697;28;20045;-81
2021/07/21 03:45:38;;;;;;;12.82;9.13;;;;;;;15.93;83.84;101328.41;5036927;28;20107;-82
2021/07/21 03:48:07;;;;;;;14.45;10.13;;;;;;;15.81;84.14;101320.47;5017206;28;20044;-80
2021/07/21 03:50:34;;;;;;;15.65;9.93;;;;;;;15.89;84.18;101331.38;5020332;28;20136;-82
2021/07/21 03:53:27;;;;;;;11.52;8.88;;;;;;;16.13;82.93;101334.13;4998891;28;20088;-82
2021/07/21 03:55:55;;;;;;;12.10;8.77;;;;;;;16.05;82.87;101329.38;5003945;28;20223;-83
2021/07/21 03:58:22;;;;;;;14.60;10.13;;;;;;;16.08;82.81;101337.13;4989854;28;20148;-83
2021/07/21 04:00:53;;;;;;;14.57;9.80;;;;;;;16.10;82.92;101343.16;5016641;28;20140;-83
2021/07/21 04:03:21;;;;;;;12.23;9.10;;;;;;;16.15;82.56;101345.50;5015859;28;20065;-87
2021/07/21 04:05:50;;;;;;;15.32;10.50;;;;;;;16.22;82.36;101343.28;5014565;28;20139;-83
2021/07/21 04:08:18;;;;;;;15.63;9.45;;;;;;;16.25;82.49;101348.34;4986562;28;20060;-83
2021/07/21 04:10:49;;;;;;;17.20;9.80;;;;;;;16.37;81.83;101356.28;5013468;28;20467;-82
2021/07/21 04:13:16;;;;;;;16.23;10.40;;;;;;;16.33;82.00;101335.38;5011003;28;20056;-82
2021/07/21 04:15:46;;;;;;;16.23;10.15;;;;;;;16.09;83.20;101346.78;5009424;28;20092;-84
2021/07/21 04:18:15;;;;;;;17.02;9.43;;;;;;;16.11;83.60;101347.50;5010522;28;20065;-83
2021/07/21 04:20:43;;;;;;;14.68;9.15;;;;;;;16.15;83.51;101350.81;5027405;28;20055;-83
2021/07/21 04:23:10;;;;;;;16.30;10.57;;;;;;;16.28;83.10;101345.47;5008282;28;20145;-83
2021/07/21 04:25:38;;;;;;;13.30;9.75;;;;;;;16.44;82.11;101351.41;5031200;28;20292;-84
2021/07/21 04:28:06;;;;;;;16.67;9.63;;;;;;;16.58;81.83;101359.22;5009379;28;20041;-82
2021/07/21 04:30:33;;;;;;;12.70;9.18;;;;;;;16.71;80.74;101360.03;5015967;28;20084;-83
2021/07/21 04:33:01;;;;;;;13.48;8.45;;;;;;;16.55;81.25;101358.59;4995927;28;20392;-80
2021/07/21 04:35:29;;;;;;;13.02;9.98;;;;;;;16.37;82.42;101355.44;5026155;28;20060;-84
2021/07/21 04:37:57;;;;;;;12.95;9.75;;;;;;;16.58;81.53;101364.53;5005186;28;20079;-84
2021/07/21 04:40:24;;;;;;;16.40;10.20;;;;;;;16.69;81.03;101369.91;5009431;28;20077;-85
2021/07/21 04:42:51;;;;;;;14.55;9.35;;;;;;;16.77;80.51;101371.22;4988526;28;20216;-81
2021/07/21 04:45:19;;;;;;;12.10;9.00;;;;;;;16.51;81.63;101373.06;5020925;28;20033;-81
2021/07/21 04:47:46;;;;;;;13.75;9.55;;;;;;;16.64;81.20;101372.06;5033534;28;20132;-84
2021/07/21 04:50:15;;;;;;;15.70;10.18;;;;;;;16.62;81.52;101378.47;5035156;28;20065;-82
2021/07/21 04:52:43;;;;;;;17.40;9.82;;;;;;;16.61;81.45;101374.94;5023649;28;20050;-83
2021/07/21 04:55:10;;;;;;;14.18;9.20;;;;;;;16.65;81.58;101367.59;5020427;28;20132;-81
2021/07/21 04:57:38;;;;;;;14.18;9.15;;;;;;;16.79;80.45;101386.06;5010957;28;20056;-84
2021/07/21 05:00:06;;;;;;;18.33;9.93;;;;;;;16.54;81.85;101381.66;5004795;28;20053;-82
2021/07/21 05:02:33;;;;;;;17.23;9.82;;;;;;;16.44;82.52;101377.97;5007362;28;20107;-83
2021/07/21 05:05:03;;;;;;;15.00;10.07;;;;;;;16.60;82.09;101377.72;5005089;28;20052;-82
2021/07/21 05:07:30;;;;;;;16.23;9.77;;;;;;;16.74;81.24;101388.22;5020482;28;20081;-84
2021/07/21 05:09:57;;;;;;;17.02;9.80;;;;;;;16.91;80.54;101387.84;5024444;28;20161;-84
2021/07/21 05:12:25;;;;;;;17.77;8.70;;;;;;;17.00;80.04;101390.78;5032187;28;20491;-83
2021/07/21 05:14:52;;;;;;;18.58;10.10;;;;;;;16.97;79.99;101402.50;5013050;28;20049;-83
2021/07/21 05:17:19;;;;;;;17.55;10.00;;;;;;;17.20;79.17;101398.13;5000839;28;20092;-84
2021/07/21 05:19:46;;;;;;;16.50;9.70;;;;;;;17.37;78.32;101400.38;4993213;28;20308;-84
2021/07/21 05:22:14;;;;;;;17.67;9.63;;;;;;;17.27;78.58;101399.38;5011929;28;20041;-85
2021/07/21 05:24:45;;;;;;;20.02;9.35;;;;;;;17.47;77.66;101405.84;5030422;28;20176;-81
2021/07/21 05:27:12;;;;;;;24.65;9.35;;;;;;;17.55;77.43;101400.81;5016009;28;20042;-83
2021/07/21 05:29:39;;;;;;;17.80;9.00;;;;;;;17.66;76.13;101408.00;5015647;28;20053;-83
2021/07/21 05:32:07;;;;;;;12.10;9.05;;;;;;;17.59;76.63;101409.41;5026041;28;20037;-82
2021/07/21 05:34:34;;;;;;;15.90;9.82;;;;;;;17.81;76.28;101403.34;5014402;28;20092;-84
2021/07/21 05:37:03;;;;;;;19.50;10.55;;;;;;;18.05;74.75;101408.56;5004553;28;20049;-84
2021/07/21 05:39:30;;;;;;;14.75;9.52;;;;;;;18.21;74.04;101407.25;5017107;28;20053;-82
2021/07/21 05:41:58;;;;;;;12.88;8.90;;;;;;;18.40;73.47;101409.31;4985018;28;20093;-82
2021/07/21 05:44:26;;;;;;;13.95;9.02;;;;;;;18.44;73.29;101417.91;5021775;28;20045;-83
2021/07/21 05:46:53;;;;;;;20.17;8.55;;;;;;;18.64;72.21;101417.19;5015349;28;20334;-83
2021/07/21 05:49:21;;;;;;;17.13;9.05;;;;;;;18.65;71.73;101410.88;5011878;28;20037;-84
2021/07/21 05:51:48;;;;;;;17.63;9.30;;;;;;;18.93;70.84;101422.00;4999578;28;20120;-85
2021/07/21 05:54:16;;;;;;;15.82;9.00;;;;;;;19.06;70.13;101422.69;5003870;28;20053;-84
2021/07/21 05:56:43;;;;;;;17.02;8.25;;;;;;;18.84;70.44;101420.94;5039112;28;20089;-85
2021/07/21 05:59:11;;;;;;;12.48;8.80;;;;;;;18.79;71.69;101422.28;5018124;28;20453;-85
2021/07/21 06:01:38;;;;;;;14.70;8.52;;;;;;;18.94;70.60;101421.88;5034651;28;20088;-82
2021/07/21 06:04:08;;;;;;;14.75;9.98;;;;;;;18.76;71.07;101420.69;5032385;28;20037;-82
2021/07/21 06:06:35;;;;;;;14.40;8.15;;;;;;;18.79;71.87;101424.94;5002173;28;20095;-85
2021/07/21 06:09:04;;;;;;;17.48;9.02;;;;;;;19.52;69.11;101426.88;4995834;28;20128;-84
2021/07/21 06:11:31;;;;;;;13.13;8.77;;;;;;;20.08;66.70;101423.06;4992232;28;20252;-84
2021/07/21 06:14:00;;;;;;;14.30;8.30;;;;;;;20.30;65.72;101428.22;5026478;28;20080;-83
2021/07/21 06:16:27;;;;;;;13.93;9.38;;;;;;;20.41;64.28;101430.81;5013084;28;20100;-82
2021/07/21 06:18:55;;;;;;;14.50;8.43;;;;;;;20.59;63.92;101433.75;4987432;28;20448;-82
2021/07/21 06:21:22;;;;;;;14.57;8.23;;;;;;;20.88;63.32;101430.28;4975639;28;20432;-84
2021/07/21 06:23:50;;;;;;;17.00;8.70;;;;;;;21.62;60.60;101429.81;4997202;28;20499;-83
2021/07/21 06:26:18;;;;;;;13.45;7.53;;;;;;;22.37;58.62;101428.09;4992086;28;20205;-84
2021/07/21 06:28:45;;;;;;;14.43;8.40;;;;;;;22.21;58.34;101442.16;5030192;28;20376;-83
2021/07/21 06:31:12;;;;;;;16.17;8.23;;;;;;;22.83;56.80;101437.03;5027141;28;20099;-85
2021/07/21 06:33:40;;;;;;;18.27;8.20;;;;;;;23.04;55.33;101436.81;5013385;28;20078;-81
2021/07/21 06:36:07;;;;;;;15.48;8.60;;;;;;;24.39;51.84;101435.56;4994873;28;20037;-83
2021/07/21 06:38:34;;;;;;;17.67;9.57;;;;;;;24.96;49.92;101448.41;5018189;28;20157;-84
2021/07/21 06:41:02;;;;;;;16.83;8.65;;;;;;;24.29;50.61;101450.97;5007784;28;20124;-82
2021/07/21 06:43:29;;;;;;;22.17;8.00;;;;;;;23.60;53.06;101449.94;4980856;28;20081;-82
2021/07/21 06:45:58;;;;;;;13.60;7.47;;;;;;;22.85;54.83;101456.53;5035154;28;20080;-81
2021/07/21 06:48:25;;;;;;;12.40;7.88;;;;;;;22.89;54.82;101466.88;5025114;28;20059;-85
2021/07/21 06:50:52;;;;;;;12.63;7.45;;;;;;;23.45;53.57;101465.75;5012335;28;20348;-84
2021/07/21 06:53:19;;;;;;;14.23;7.47;;;;;;;22.94;54.71;101459.19;5014388;28;20132;-84
2021/07/21 06:55:47;;;;;;;13.00;7.70;;;;;;;23.36;53.35;101464.00;5026043;28;20525;-83
2021/07/21 06:58:14;;;;;;;9.65;6.47;;;;;;;23.41;52.84;101467.06;5038880;28;20575;-82
2021/07/21 07:00:41;;;;;;;11.30;6.57;;;;;;;23.99;51.54;101463.03;4992209;28;20143;-83
2021/07/21 07:03:09;;;;;;;9.45;7.00;;;;;;;24.31;49.38;101456.16;5028217;28;20375;-84
2021/07/21 07:05:36;;;;;;;9.82;6.78;;;;;;;24.85;48.25;101464.84;5021418;28;20090;-84
2021/07/21 07:08:04;;;;;;;10.40;6.28;;;;;;;25.37;46.40;101464.69;5006362;28;20409;-83
2021/07/21 07:10:32;;;;;;;10.70;6.55;;;;;;;26.04;46.00;101468.06;5007953;28;20050;-85
2021/07/21 07:13:04;;;;;;;15.07;6.05;;;;;;;27.33;42.51;101470.44;5021137;28;20034;-83
2021/07/21 07:15:33;;;;;;;7.72;6.05;;;;;;;27.11;41.75;101474.81;5030613;28;20045;-86
2021/07/21 07:18:00;;;;;;;8.30;5.93;;;;;;;27.60;40.58;101484.44;5021694;28;20053;-83
2021/07/21 07:20:27;;;;;;;8.23;6.00;;;;;;;28.45;38.94;101479.59;5003796;28;20443;-86
2021/07/21 07:22:54;;;;;;;7.93;5.50;;;;;;;28.56;37.92;101486.44;5005789;28;20068;-84
2021/07/21 07:25:22;;;;;;;10.77;5.97;;;;;;;28.81;37.83;101478.81;5017379;28;20128;-83
2021/07/21 07:27:49;;;;;;;9.10;5.43;;;;;;;28.68;37.86;101474.06;5012658;28;20049;-83
2021/07/21 07:30:16;;;;;;;11.13;7.60;;;;;;;28.69;37.81;101478.50;5036766;28;20044;-85
2021/07/21 07:32:43;;;;;;;8.25;5.68;;;;;;;26.90;40.36;101482.69;4980616;28;20429;-83
2021/07/21 07:35:11;;;;;;;18.17;6.95;;;;;;;29.51;36.79;101480.91;5033436;28;20091;-83
2021/07/21 07:37:38;;;;;;;10.32;6.20;;;;;;;32.71;31.07;101481.75;5030342;28;20077;-82
2021/07/21 07:40:06;;;;;;;9.57;5.40;;;;;;;32.90;29.84;101474.50;4999241;28;20044;-84
2021/07/21 07:42:33;;;;;;;10.73;5.40;;;;;;;31.38;32.17;101480.16;5002893;28;20155;-84
2021/07/21 07:45:01;;;;;;;6.18;4.60;;;;;;;28.75;35.05;101483.16;5008642;28;20065;-83
2021/07/21 07:47:28;;;;;;;9.18;5.40;;;;;;;27.04;39.09;101489.19;5011206;28;20107;-85
2021/07/21 07:49:55;;;;;;;11.23;5.90;;;;;;;27.27;39.33;101499.03;4998884;28;20079;-84
2021/07/21 07:52:23;;;;;;;19.05;7.10;;;;;;;28.12;37.56;101483.69;5041301;28;20136;-84
2021/07/21 07:54:54;;;;;;;13.55;6.68;;;;;;;28.13;37.70;101491.59;5014565;28;20042;-85
2021/07/21 07:57:22;;;;;;;12.98;5.60;;;;;;;28.22;37.65;101490.50;5018741;28;20050;-84
2021/07/21 07:59:49;;;;;;;17.02;6.00;;;;;;;25.99;42.31;101492.88;5032034;28;20096;-83
2021/07/21 08:02:16;;;;;;;9.88;5.53;;;;;;;27.62;39.65;101488.66;4996322;28;20061;-84
2021/07/21 08:04:45;;;;;;;11.60;6.78;;;;;;;28.22;38.54;101484.25;5023285;28;20526;-84
2021/07/21 08:07:12;;;;;;;11.98;6.72;;;;;;;27.54;39.95;101496.81;5015726;28;20061;-86
2021/07/21 08:09:40;;;;;;;10.30;5.90;;;;;;;26.61;42.56;101491.41;5014907;28;20374;-84
2021/07/21 08:12:09;;;;;;;8.75;6.05;;;;;;;25.17;45.20;101494.63;5002503;28;20041;-81
2021/07/21 08:14:37;;;;;;;22.70;7.57;;;;;;;25.11;45.95;101484.50;5017881;28;20042;-82
2021/07/21 08:17:04;;;;;;;10.30;6.82;;;;;;;25.29;46.00;101488.91;5011142;28;20497;-83
2021/07/21 08:19:31;;;;;;;12.35;6.65;;;;;;;24.95;47.08;101490.66;5028684;28;20036;-81
2021/07/21 08:21:59;;;;;;;16.55;6.57;;;;;;;25.35;45.14;101493.63;5005832;28;20053;-84
2021/07/21 08:24:26;;;;;;;9.95;6.47;;;;;;;25.15;45.85;101499.34;5004780;28;20049;-84
2021/07/21 08:26:53;;;;;;;12.52;6.60;;;;;;;25.03;46.26;101503.28;5028122;28;20041;-84
2021/07/21 08:29:37;;;;;;;11.70;6.50;;;;;;;24.46;47.10;101495.84;4999764;28;20150;-83
2021/07/21 08:32:05;;;;;;;9.38;5.93;;;;;;;24.07;48.95;101502.59;4989665;28;20048;-83
2021/07/21 08:34:33;;;;;;;14.60;6.03;;;;;;;23.67;49.26;101504.78;5010388;28;20071;-83
2021/07/21 08:37:00;;;;;;;18.25;6.95;;;;;;;23.69;48.48;101502.81;4971805;28;20156;-84
2021/07/21 08:39:27;;;;;;;7.72;5.47;;;;;;;23.96;47.53;101509.09;4993676;28;20479;-85
2021/07/21 08:41:55;;;;;;;10.10;4.80;;;;;;;23.27;46.39;101509.75;4998477;28;20049;-83
2021/07/21 08:44:22;;;;;;;7.72;4.13;;;;;;;23.32;47.30;101507.44;5037346;28;20055;-83
2021/07/21 08:46:49;;;;;;;10.63;4.85;;;;;;;23.44;46.62;101503.53;5007701;28;20072;-83
2021/07/21 08:49:17;;;;;;;6.95;4.80;;;;;;;23.55;46.30;101505.16;5034228;28;20054;-85
2021/07/21 08:51:44;;;;;;;6.25;4.13;;;;;;;22.73;47.83;101504.22;4999931;28;20164;-82
2021/07/21 08:54:16;;;;;;;8.57;5.00;;;;;;;23.04;48.85;101503.94;5010423;28;20395;-83
2021/07/21 08:56:44;;;;;;;23.52;6.47;;;;;;;22.47;51.90;101504.06;5010375;28;20080;-83
2021/07/21 08:59:15;;;;;;;15.32;9.00;;;;;;;22.50;53.29;101499.22;5036284;28;20063;-82
2021/07/21 09:01:43;;;;;;;14.02;6.28;;;;;;;22.60;53.48;101501.84;5014987;28;20384;-82
2021/07/21 09:04:11;;;;;;;15.23;6.13;;;;;;;22.70;53.25;101505.38;5011246;28;20440;-81
2021/07/21 09:06:39;;;;;;;30.13;6.28;;;;;;;22.73;52.34;101509.56;5021183;28;21064;-81
2021/07/21 09:09:06;;;;;;;13.52;5.57;;;;;;;22.41;52.79;101510.81;5023846;28;20069;-83
2021/07/21 09:11:35;;;;;;;13.27;6.05;;;;;;;22.32;52.93;101510.84;5006954;28;20045;-85
2021/07/21 09:14:03;;;;;;;12.60;5.72;;;;;;;22.45;52.11;101512.22;5010365;28;20057;-82
2021/07/21 09:16:30;;;;;;;13.15;5.80;;;;;;;22.48;52.55;101508.41;5008559;28;20469;-84
2021/07/21 09:18:58;;;;;;;10.88;5.07;;;;;;;22.30;51.64;101511.00;5019918;28;20079;-82
2021/07/21 09:21:26;;;;;;;9.10;4.88;;;;;;;22.42;51.06;101501.78;4989468;28;20132;-86
2021/07/21 09:23:55;;;;;;;5.00;4.30;;;;;;;22.90;50.65;101510.66;5010539;28;20045;-82
2021/07/21 09:26:22;;;;;;;9.05;4.88;;;;;;;23.25;49.65;101510.75;5011709;28;20045;-86
2021/07/21 09:28:54;;;;;;;8.32;5.32;;;;;;;23.66;48.81;101513.03;5004536;28;20149;-84
2021/07/21 09:31:33;;;;;;;14.13;5.00;;;;;;;24.26;47.48;101499.69;4991787;28;20049;-83
2021/07/21 09:34:20;;;;;;;10.77;5.20;;;;;;;24.17;47.39;101506.88;5020233;28;20059;-81
2021/07/21 09:36:48;;;;;;;12.77;4.20;;;;;;;24.24;45.66;101505.25;5017746;28;20510;-82
2021/07/21 09:39:16;;;;;;;8.77;4.25;;;;;;;24.76;44.95;101504.38;5003077;28;20128;-84
2021/07/21 09:41:51;;;;;;;10.13;4.25;;;;;;;24.61;45.46;101503.31;5009513;28;20049;-82
2021/07/21 09:44:31;;;;;;;5.22;3.85;;;;;;;24.66;43.67;101507.19;4993812;28;20088;-84
2021/07/21 09:47:16;;;;;;;5.35;3.15;;;;;;;24.86;42.17;101502.41;5032713;28;20083;-84
2021/07/21 09:49:44;;;;;;;3.33;2.95;;;;;;;24.96;41.88;101503.13;5012067;28;20061;-83
2021/07/21 09:52:21;;;;;;;7.63;3.50;;;;;;;25.13;42.18;101506.75;5026095;28;20041;-84
2021/07/21 09:55:09;;;;;;;6.00;2.97;;;;;;;25.63;42.35;101502.28;4990515;28;20057;-82
2021/07/21 09:57:38;;;;;;;10.65;4.10;;;;;;;25.70;40.70;101514.06;5024513;28;20076;-83
2021/07/21 10:00:28;;;;;;;6.25;3.47;;;;;;;25.91;38.57;101511.75;5027831;28;20260;-83
2021/07/21 10:03:23;;;;;;;4.63;3.55;;;;;;;25.81;39.59;101500.31;5012411;28;20049;-84
2021/07/21 10:06:02;;;;;;;6.33;3.40;;;;;;;25.02;41.13;101507.84;5025778;28;20053;-82
2021/07/21 10:08:43;;;;;;;6.82;3.30;;;;;;;25.72;40.77;101502.13;5025421;28;20103;-82
2021/07/21 10:11:22;;;;;;;13.20;4.13;;;;;;;25.78;40.07;101508.72;5026612;28;20052;-84
2021/07/21 10:13:51;;;;;;;5.57;3.40;;;;;;;25.79;38.49;101499.63;5009566;28;20057;-83
2021/07/21 10:16:41;;;;;;;8.13;3.25;;;;;;;26.10;38.25;101504.31;4995535;28;20050;-84
2021/07/21 10:19:12;;;;;;;4.57;3.17;;;;;;;24.81;39.96;101501.19;5012843;28;20603;-83
2021/07/21 10:21:45;;;;;;;6.20;3.03;;;;;;;24.75;39.96;101498.16;5007249;28;20162;-83
2021/07/21 10:24:13;;;;;;;5.05;2.63;;;;;;;25.07;39.13;101498.44;5002516;28;20041;-81
2021/07/21 10:26:41;;;;;;;4.80;2.85;;;;;;;24.65;39.79;101491.22;5011866;28;20138;-85
2021/07/21 10:29:09;;;;;;;4.82;2.60;;;;;;;24.45;39.98;101493.28;4986138;28;20049;-84
2021/07/21 10:31:37;;;;;;;6.15;4.03;;;;;;;24.52;40.68;101496.19;5019641;28;20137;-85
2021/07/21 10:34:05;;;;;;;6.03;2.75;;;;;;;23.61;40.46;101499.19;4997519;28;20481;-82
2021/07/21 10:36:34;;;;;;;5.88;3.00;;;;;;;23.34;41.10;101500.94;5012284;28;20103;-80
2021/07/21 10:39:07;;;;;;;5.57;2.78;;;;;;;24.34;39.84;101489.00;5016442;28;20128;-83
2021/07/21 10:41:34;;;;;;;6.30;2.95;;;;;;;24.53;40.43;101487.94;5004409;28;20045;-82
2021/07/21 10:44:02;;;;;;;9.85;2.85;;;;;;;24.16;40.07;101498.97;5043851;28;20143;-83
2021/07/21 10:46:50;;;;;;;6.13;3.47;;;;;;;23.98;41.06;101504.38;5003454;28;20049;-84
2021/07/21 10:49:34;;;;;;;5.55;3.30;;;;;;;24.39;40.59;101492.06;5016269;28;20120;-81
2021/07/21 11:00:12;;;;;;;10.65;3.00;;;;;;;24.78;40.02;101483.53;5029325;28;20049;-80
2021/07/21 11:02:40;;;;;;;7.22;3.35;;;;;;;24.57;40.61;101489.31;5008289;28;20049;-83
2021/07/21 11:05:30;;;;;;;7.57;2.58;;;;;;;24.02;41.38;101481.56;5001490;28;20049;-82
2021/07/21 11:07:58;;;;;;;7.18;3.60;;;;;;;23.98;41.58;101493.63;5011036;28;20053;-85
2021/07/21 11:10:42;;;;;;;8.07;3.20;;;;;;;24.66;41.37;101490.19;4982795;28;20089;-84
2021/07/21 11:13:34;;;;;;;4.75;2.83;;;;;;;24.94;40.50;101497.03;5013533;28;20059;-83
2021/07/21 11:16:04;;;;;;;8.98;4.07;;;;;;;25.44;38.85;101496.22;5028053;28;20053;-83
2021/07/21 11:18:35;;;;;;;5.85;2.97;;;;;;;25.12;39.47;101494.25;5010090;28;20044;-84
2021/07/21 11:21:16;;;;;;;4.63;2.63;;;;;;;25.55;38.60;101486.94;5018363;28;20400;-85
2021/07/21 11:23:52;;;;;;;7.32;3.00;;;;;;;25.90;37.16;101480.41;4977308;28;20577;-85
2021/07/21 11:26:32;;;;;;;3.60;3.15;;;;;;;26.09;37.18;101483.75;5027702;28;20135;-84
2021/07/21 11:29:29;;;;;;;6.35;2.80;;;;;;;26.38;36.99;101486.72;5010310;28;20050;-82
2021/07/21 11:31:58;;;;;;;4.30;2.90;;;;;;;26.22;37.11;101484.91;5033166;28;20491;-84
2021/07/21 11:34:35;;;;;;;4.20;2.90;;;;;;;25.24;37.92;101487.56;5018423;28;20072;-82
2021/07/21 11:37:19;;;;;;;12.45;3.40;;;;;;;24.34;40.25;101488.16;4988935;28;20046;-83
2021/07/21 11:39:50;;;;;;;5.57;2.95;;;;;;;24.69;40.13;101485.34;5033413;28;20041;-87
2021/07/21 11:42:26;;;;;;;7.82;2.90;;;;;;;24.17;40.46;101488.03;5014659;28;20053;-82
2021/07/21 11:45:03;;;;;;;4.30;3.13;;;;;;;23.80;40.13;101492.81;5031513;28;20080;-81
2021/07/21 11:47:34;;;;;;;8.48;2.97;;;;;;;23.63;40.95;101499.84;5036429;28;20068;-84